Terminal Aerodrome Forecast
Issued by NWS

Home | Current Version | Previous Version | Graphics & Text | Print | Product List | Glossary On
Versions: 1 2 3 4 5 6 7 8 9 10 11 12 13 14 15 16 17 18 19 20
000
FTUS43 KIWX 251738
TAFSBN
TAF
KSBN 251738Z 2518/2618 29016G24KT 5SM -SHSN BKN025
     FM252000 29015G22KT P6SM VCSH OVC040
     FM260400 28010KT P6SM BKN035
     FM261100 19008KT P6SM SCT100=

USA.gov is the U.S. government's official web portal to all federal, state and local government web resources and services.